Résultats de la compétition "Moyenne Dist SO St PEE sur Nivelle 260810" du 26-08-2010 organisée par la ligue AQ
     
  Télécharger le fichier CSV.  
     
     

 Circuit "D"

Licence Nom Prénom Temps CN
précédent
Score sur
la course
Différence
1656MENUTJ-Claude0:24:0449615243+282
8928MASCARELLHenri0:24:5248385075+237
922PREVOSTPascale0:24:5356995071-628
2119VANNIERBernard0:25:0654755027-448
7788MORLONLouise0:26:0330594844+1785
1347SINIBALDIMarc0:26:0448144841+27
2789EVENGabriel0:26:2846214768+147
8868BRAMASRenee0:26:3040874762+675
21323VANOVERBERGHECamille0:26:4926314706+2075
2712VUILLETChristian0:26:5348374694-143
1086ROBERTChristian0:26:5849594679-280
3312CORDIERJacques0:26:5949254676-249
17406CAMPBELLJane0:27:1145034642+139
1583TAILLANDIERGuy0:27:1253624639-723
4272CLERCAnne0:27:4737494542+793
19238CAMASMandye0:27:4831034539+1436
1956WIBARTMartine0:27:5240084528+520
5508DEUBELBEISSAlain0:28:1037214480+759
3137MANOClaudio0:28:3740354410+375
3556SZNAIDERPatrick0:28:5629604361+1401
1270ANTOINEAlain0:29:0651824336-846
20572GUILMAINMelanie0:29:2730314285+1254
95CABONHerve0:29:3742204261+41
2857LEROUXJacques0:29:4746634237-426
10888DAYRIESMichel0:29:5329544223+1269
20410FALCOZEstelle0:29:5723434213+1870
3163COLOMBETChristian0:30:0339374199+262
14575AMETMarion0:30:1829164165+1249
2558VOGTClaude0:30:4643834101-282
10639BOULANGERIsabelle0:30:5033354093+758
2817CROCHETGerard0:31:0133364068+732
646LARMINACHAndre0:31:0337514064+313
626COURNUTAlain0:31:2149034025-878
20101MOUYONElisa0:31:5125743962+1388
18299GOURLAINMathilde0:31:5428743956+1082
3108GANZITTIAlexandre0:32:1550963913-1183
16756PONCETJ-Pierre0:32:2547943893-901
9472JOUZEAUGeorges0:32:2942503885-365
5597EJSMONTJean0:32:5646663832-834
2401DEVILLENelly0:33:0244023820-582
6442GEOFFROYGerard0:33:1736653791+126
2571DURIEUXPierre0:33:38N/A3752N/A
930SIMONETJean0:33:4441363741-395
1605LEPOUPONAndre0:34:0139913710-281
2679KIEFFERJ-Paul0:34:0237603708-52
1693BAUDRYJ-Claude0:34:3437593651-108
2926CALANDOTJ-Pierre0:34:4743993628-771
1380DIEUDONNEMadeleine0:34:5140253621-404
3086JEQUELYann0:34:5840243609-415
1107NATALIPierre0:35:0536093597-12
561DONNARDJ-Pierre0:35:0940923590-502
2555RIAULTBernard0:35:2539263563-363
1178LEMERCIERBernard0:35:4236213535-86
15276VERDINAlix0:35:4226143535+921
7833MARTINEZCatherine0:35:4536633530-133
1005ALLANCONMichel0:35:5345693517-1052
16403EUZENJ-Paul0:36:1130993487+388
1448KENANEAbdelkader0:36:1846833476-1207
3302JEANPIERREM-Therese0:36:2731283462+334
4391DODINYves0:36:2732083462+254
933SOLMichel0:36:2943973459-938
20215SIXPauline0:37:1228163392+576
1262BEHOTEGUYBernard0:37:1438933389-504
8138LEGUENJoseph0:37:2632163371+155
9477MICHONAnnie0:37:2826863368+682
20200LEPERQUEOphelie0:37:3032173365+148
7520BOUCHESylvie0:37:4335113346-165
12359BAYLEOdile0:37:5433293329+0
2524DUVALJacques0:37:5828323324+492
3262DELALANDEJoel0:38:0421673315+1148
3356CHARIAUMichel0:38:0834063309-97
2349HELIOTClaude0:38:1133483305-43
2411ROLLETDaniel0:38:2531483285+137
1087ROBERTMartine0:38:2737323282-450
20533TRESSOLLudivine0:38:4918313251+1420
2557VOGTChristiane0:38:5936493237-412
2030BARBIERYves0:39:3940123183-829
19382ASSANTEGerard0:39:4030723181+109
9438MANSUYLaurette0:40:0032183155-63
1381DIEUDONNERoland0:40:0536293148-481
6886FRANTZFrancoise0:40:1135163140-376
5533THIEBAULTJ-Philippe0:40:1334563138-318
23286JOURDANCindy0:40:15N/A3135N/A
1756LORREAnnie0:40:2636913121-570
1509AUBRYMaurice0:40:2843723118-1254
20170MAIRECandice0:41:0023283078+750
1152DELIFrancoise0:41:1138723064-808
22931GOZEAnne0:41:27N/A3044N/A
1909MEYERCorinne0:41:2733623044-318
1106NATALIAnnie0:41:2828693043+174
8626FERRANDM-Christine0:41:2929523042+90
13706LACOMBEJ-Pierre0:41:4529243022+98
23425ARROQUIMathilde0:41:49N/A3018N/A
116PIGERAlbert0:41:50N/A3016N/A
12787VERGEEvelyne0:41:5223983014+616
2343DUFOURMarcel0:41:5739403008-932
1000LEFOUESTJoseph0:41:5937513006-745
633DUBROCAMonique0:42:4141482956-1192
12056SCHMITT-POUPARDFlorence0:42:5533162940-376
12715BOCQUETPascale0:43:0129572933-24
19219RIETHMULLERMathilde0:43:2235442910-634
2888MOULIEREM-Bernadett0:43:4431522885-267
4126DUCOSElisabeth0:43:5525522873+321
16129THIEBAUTEvelyne0:44:0029432868-75
1938LEFRANCOISGerard0:44:0636852861-824
12060PITAVALSylvie0:44:3530452830-215
96CABONMonique0:44:4824602817+357
6443GEOFFROYNicole0:45:3725352766+231
18142LE NAOURGaelle0:45:3728562766-90
9059GUINETLaurence0:45:4516502758+1108
746TINCHANTJ-Marc0:45:4731212756-365
931SIMONETMarie0:45:5022562753+497
2952ARMBRUSTERMarie0:45:5534622748-714
17201LAMINETTEM-Odile0:46:0218082741+933
2294BOYERBernard0:46:0738252736-1089.3333
6491ROBERTFrancoise0:46:1942642724-1540
6826DUVOUXFrance0:46:2027232723+0
22417GERBEAUXMarie-jeanne0:46:5502690N/A
20224SELINGUECécile0:48:1624732614+141
4671POGUPaulette0:48:5527972580-217
16352BAUDOINJ-Paul0:49:0436632572-1091
4507DUBROCAJ-Michel0:49:1331992564-635
8981PERROCHONFrancoise0:49:5728982526-372
16634BAUDOINAnnie0:50:0722382518+280
15296GREVETClaudie0:50:5121722482+310
14245RICHARDNicole0:50:5931132475-638
249GANDONJ-Claude0:51:1438082463-1345
13752VILLEDIEUMartine0:51:1638182461-1357
455GUIGUETMichel0:51:3536322446-1186
12102BOUVERETMichelle0:51:4232012441-760
19574PARISAlain0:51:55N/A2431N/A
2680KIEFFERMireille0:51:5827852428-357
12354GROSJEANPierre0:55:0525212291-230
2927CALANDOTMichelle0:55:0926862288-398
18828CRETECamille0:55:4727042262-442
19362TOULEMONDECamille0:56:1828642241-623
14002DUBOISSylvie0:57:2023122201-111
11305NOY-GSELLArielle0:57:3123982194-204
2413ROLLETM-Madeleine0:57:5026032182-421
406TREZEGUETCatherine0:58:1920822164+82
1443BEGUINOTJacques0:58:2023592163-196
4392DODINGenevieve0:58:4421242148+24
16127LEMBEZATChristian0:59:2229102126-784
5497COCAULTYvonne0:59:2429462124-822
1438BOUSQUETMichel0:59:4938322110-1722
1599JOUVEColette1:00:3221042085-19
2387SUTTEROdile1:00:3325422084-458
2485JOLYAlain1:01:0718792065+186
807BOURRINM-Francoise1:02:1624032027-376
4234DRAULTJ-Raymond1:03:2727821989-793
5804BREMAUDVeronique1:03:3021071987-120
14876CAZALADominique1:04:2324991960-539
8954BASTIEN-FATHNicole1:04:5221941945-249
2885LECOYERAnnick1:04:5427141944-770
22893BRISSARDVirginie1:05:25N/A1929N/A
8828EVENLaurie1:08:479721835+863
1416CHAVERNACBruno1:09:3219681815-153
16126LEMBEZATChristine1:11:5326511755-896
14632ALLANCONClaudine1:11:5419241755-169
11810GUETMartine1:12:4419981735-263
2487JOLYFrancoise1:13:07N/A1726N/A
13991POUPIERClaudine1:13:3822311714-517
6715CORDIERSylvie1:17:39N/A1625N/A
12059GROSJEANA-Marie1:18:2523201609-711
14078BLAUDEZJocelyne1:23:0401519N/A
4490THIEBAULTM-Paule1:26:5019291453-476
3918VERTGenevieve1:28:579231419+496
1417CHAVERNACChantal1:30:299541395+441
1001LEFOUESTM-Therese1:32:1121151369-746
117PIGERGhislaine1:35:59N/A1315N/A
1628ROUXAnnie1:48:0911031167+64
15894LUDEWIG-JAMESCarol1:58:3221281065-1063
11368LAUNEYNoella2:08:512096979-1117
636FOURGASSIEAlain2:30:373405838-2567
5033THIEBAULTMoniqueN/A41350-4135
8761BRUNELMarie-JoN/A33670-3367
12192LOUATAimeN/A40150-4015
3462DECHAVANNEDeniseN/A16970-1697
4156RICHAUDAlainN/A47100-4710
725LAURENTThereseN/A21680-2168
21435DEFIXAnne ClaireN/A27690-2769
2474LEMERCIERJocelyneN/A27430-2743
17397AVIRONM-ThereseN/A19870-1987
939VARDANEGAOdileN/A23900-2390
1437BOUSQUETHuguetteN/A17850-1785

  Indice de confiance du circuit (moyenne des différences entre CN et score sur la course des 3 à 10 premiers) : 58






 Retour